Time;durP1;ratioP1;P1;durP2;ratioP2;P2;SDS_P1;SDS_P2;PMS_P1;PMS_P2;Temp;Humidity;BMP_temperature;BMP_pressure;BME280_temperature;BME280_humidity;BME280_pressure;Samples;Min_cycle;Max_cycle;Signal;HPM_P1;HPM_P2
2021/09/12 00:00:35;;;;;;;2.78;1.95;;;11.00;99.90;;;;;;5006800;28;20592;-68
2021/09/12 00:03:01;;;;;;;2.13;1.92;;;11.00;99.90;;;;;;5000323;28;20033;-69
2021/09/12 00:05:27;;;;;;;5.53;2.03;;;11.00;99.90;;;;;;5010262;28;20525;-69
2021/09/12 00:07:53;;;;;;;2.72;2.08;;;11.00;99.90;;;;;;5010093;28;20435;-69
2021/09/12 00:10:18;;;;;;;2.35;2.15;;;11.00;99.90;;;;;;5010041;28;20025;-69
2021/09/12 00:12:44;;;;;;;3.13;2.08;;;11.00;99.90;;;;;;5009876;28;20034;-69
2021/09/12 00:15:11;;;;;;;2.22;2.00;;;10.90;99.90;;;;;;5010046;28;20026;-69
2021/09/12 00:17:37;;;;;;;4.15;2.15;;;10.90;99.90;;;;;;5009741;28;20548;-70
2021/09/12 00:20:05;;;;;;;2.80;2.40;;;10.90;99.90;;;;;;5010158;28;20335;-70
2021/09/12 00:22:31;;;;;;;2.50;2.17;;;10.90;99.90;;;;;;5009589;28;20038;-72
2021/09/12 00:24:57;;;;;;;2.47;2.28;;;10.90;99.90;;;;;;5010101;28;20412;-70
2021/09/12 00:27:22;;;;;;;2.80;2.60;;;10.80;99.90;;;;;;5009584;28;20095;-70
2021/09/12 00:29:48;;;;;;;2.63;2.10;;;10.90;99.90;;;;;;5009822;28;20024;-70
2021/09/12 00:32:14;;;;;;;3.45;2.15;;;10.80;99.90;;;;;;5009772;28;20029;-70
2021/09/12 00:34:40;;;;;;;3.42;2.22;;;10.80;99.90;;;;;;5030228;28;20110;-70
2021/09/12 00:37:06;;;;;;;2.50;2.30;;;10.80;99.90;;;;;;5092348;28;20030;-69
2021/09/12 00:39:31;;;;;;;3.53;2.58;;;10.90;99.90;;;;;;5049951;28;20033;-69
2021/09/12 00:41:57;;;;;;;3.10;2.80;;;10.90;99.90;;;;;;5009582;28;20033;-70
2021/09/12 00:44:24;;;;;;;3.33;3.00;;;10.80;99.90;;;;;;5009344;28;20075;-70
2021/09/12 00:46:53;;;;;;;3.83;2.88;;;10.80;99.90;;;;;;5009401;28;20114;-70
2021/09/12 00:49:20;;;;;;;3.30;3.00;;;10.80;99.90;;;;;;5009753;28;20115;-70
2021/09/12 00:51:46;;;;;;;3.47;3.08;;;10.80;99.90;;;;;;4994961;28;20026;-70
2021/09/12 00:54:12;;;;;;;4.25;3.30;;;10.80;99.90;;;;;;4989981;28;20042;-69
2021/09/12 00:56:42;;;;;;;5.47;3.00;;;10.80;99.90;;;;;;4988500;28;20115;-71
2021/09/12 00:59:11;;;;;;;4.35;2.80;;;10.80;99.90;;;;;;4995529;28;20105;-71
2021/09/12 01:01:39;;;;;;;3.67;3.30;;;10.70;99.90;;;;;;5009000;28;20034;-71
2021/09/12 01:04:06;;;;;;;3.97;2.88;;;10.70;99.90;;;;;;5009576;28;20321;-71
2021/09/12 01:06:32;;;;;;;4.93;2.85;;;10.70;99.90;;;;;;5009417;28;20033;-71
2021/09/12 01:09:01;;;;;;;2.83;2.60;;;10.70;99.90;;;;;;5009312;28;20473;-71
2021/09/12 01:11:27;;;;;;;3.88;2.80;;;10.60;99.90;;;;;;5009572;28;20018;-71
2021/09/12 01:13:53;;;;;;;3.33;3.03;;;10.70;99.90;;;;;;5009552;28;20427;-70
2021/09/12 01:16:20;;;;;;;3.45;3.13;;;10.70;99.90;;;;;;5009002;28;20048;-70
2021/09/12 01:47:51;;;;;;;3.92;3.22;;;10.70;99.90;;;;;;4998183;28;20048;-72
2021/09/12 01:50:17;;;;;;;5.20;3.38;;;10.70;99.90;;;;;;4989212;28;20023;-72
2021/09/12 01:52:43;;;;;;;3.70;3.28;;;10.70;99.90;;;;;;4989285;28;20053;-72
2021/09/12 01:55:09;;;;;;;4.43;3.92;;;10.70;99.90;;;;;;5002771;28;20505;-71
2021/09/12 01:57:35;;;;;;;4.43;3.17;;;10.70;99.90;;;;;;4988880;28;20042;-71
2021/09/12 02:00:02;;;;;;;4.22;3.58;;;10.70;99.90;;;;;;5001907;28;20102;-71
2021/09/12 02:02:27;;;;;;;3.63;3.20;;;10.70;99.90;;;;;;5008701;28;20381;-71
2021/09/12 02:04:53;;;;;;;3.08;2.78;;;10.70;99.90;;;;;;5008377;28;20034;-71
2021/09/12 02:07:19;;;;;;;3.63;3.33;;;10.70;99.90;;;;;;5008873;28;20022;-71
2021/09/12 02:09:44;;;;;;;3.80;3.40;;;10.70;99.90;;;;;;5008377;28;20026;-71
2021/09/12 02:12:10;;;;;;;3.53;3.20;;;10.70;99.90;;;;;;4995081;28;20073;-71
2021/09/12 02:14:36;;;;;;;6.13;3.08;;;10.70;99.90;;;;;;5011555;28;20029;-71
2021/09/12 02:17:02;;;;;;;3.03;2.70;;;10.70;99.90;;;;;;5011816;28;20117;-71
2021/09/12 02:19:27;;;;;;;4.55;3.33;;;10.80;99.90;;;;;;5011692;28;20489;-71
2021/09/12 02:21:53;;;;;;;3.15;2.85;;;10.80;99.90;;;;;;5011719;28;20083;-71
2021/09/12 02:24:19;;;;;;;3.47;3.13;;;10.80;99.90;;;;;;5011995;28;20030;-71
2021/09/12 02:26:44;;;;;;;3.35;3.05;;;10.80;99.90;;;;;;5011618;28;20441;-71
2021/09/12 02:29:10;;;;;;;4.75;2.95;;;10.80;99.90;;;;;;5011618;28;20105;-71
2021/09/12 02:31:36;;;;;;;3.45;3.15;;;10.80;99.90;;;;;;5011700;28;20363;-71
2021/09/12 02:34:01;;;;;;;3.15;2.85;;;10.80;99.90;;;;;;5011610;28;20036;-71
2021/09/12 02:36:27;;;;;;;3.97;3.05;;;10.80;99.90;;;;;;5007399;28;20034;-71
2021/09/12 02:38:53;;;;;;;3.97;3.45;;;10.80;99.90;;;;;;5011832;28;20041;-71
2021/09/12 02:41:19;;;;;;;4.05;3.22;;;10.80;99.90;;;;;;5080271;28;20048;-71
2021/09/12 02:43:44;;;;;;;3.30;3.00;;;10.80;99.90;;;;;;4999029;28;20033;-71
2021/09/12 02:46:10;;;;;;;3.47;3.13;;;10.80;99.90;;;;;;4992071;28;20030;-71
2021/09/12 02:48:36;;;;;;;4.88;3.28;;;10.80;99.90;;;;;;5008936;28;20426;-71
2021/09/12 02:51:02;;;;;;;3.03;2.72;;;10.80;99.90;;;;;;5011436;28;20037;-71
2021/09/12 02:53:27;;;;;;;3.45;3.13;;;10.90;99.90;;;;;;5083893;28;20039;-71
2021/09/12 02:55:53;;;;;;;3.60;3.28;;;10.90;99.90;;;;;;5003981;28;20023;-71
2021/09/12 02:58:19;;;;;;;3.33;3.03;;;10.90;99.90;;;;;;4991648;28;20481;-71
2021/09/12 03:00:44;;;;;;;3.20;2.90;;;10.90;99.90;;;;;;5010207;28;20037;-71
2021/09/12 03:03:10;;;;;;;6.35;3.10;;;10.80;99.90;;;;;;5011426;28;20507;-71
2021/09/12 03:05:36;;;;;;;2.78;2.50;;;10.80;99.90;;;;;;5008037;28;20023;-70
2021/09/12 03:08:02;;;;;;;6.05;2.78;;;10.80;99.90;;;;;;5000656;28;20022;-70
2021/09/12 03:10:27;;;;;;;5.28;3.17;;;10.70;99.90;;;;;;5083717;28;20069;-70
2021/09/12 03:12:53;;;;;;;3.63;3.10;;;10.70;99.90;;;;;;5010846;28;20033;-70
2021/09/12 03:15:19;;;;;;;3.58;3.10;;;10.70;99.90;;;;;;5011188;28;20041;-70
2021/09/12 03:17:44;;;;;;;4.50;2.83;;;10.70;99.90;;;;;;5010522;28;20505;-70
2021/09/12 03:20:11;;;;;;;3.28;2.97;;;10.80;99.90;;;;;;5011156;28;20030;-70
2021/09/12 03:22:36;;;;;;;3.40;3.08;;;10.80;99.90;;;;;;5010793;28;20034;-70
2021/09/12 03:25:03;;;;;;;3.63;2.80;;;10.80;99.90;;;;;;5011000;28;20029;-70
2021/09/12 03:27:28;;;;;;;4.43;3.17;;;10.80;99.90;;;;;;5011098;28;20030;-70
2021/09/12 03:29:54;;;;;;;3.20;2.83;;;10.80;99.90;;;;;;5010876;28;20044;-71
2021/09/12 03:32:20;;;;;;;3.30;2.67;;;10.80;99.90;;;;;;5010772;28;20075;-71
2021/09/12 03:34:45;;;;;;;6.70;3.10;;;10.80;99.90;;;;;;5010338;28;20091;-71
2021/09/12 03:37:11;;;;;;;4.03;2.97;;;10.80;99.90;;;;;;5010534;28;20048;-71
2021/09/12 03:39:37;;;;;;;3.33;2.95;;;10.80;99.90;;;;;;5010828;28;20030;-71
2021/09/12 03:42:03;;;;;;;3.92;3.17;;;10.70;99.90;;;;;;5010553;28;20033;-71
2021/09/12 03:44:29;;;;;;;4.28;3.10;;;10.70;99.90;;;;;;5081779;28;20023;-71
2021/09/12 03:46:54;;;;;;;3.78;2.65;;;10.70;99.90;;;;;;5010401;28;20032;-70
2021/09/12 03:49:20;;;;;;;3.50;2.88;;;10.80;99.90;;;;;;5010765;28;20105;-70
2021/09/12 03:51:46;;;;;;;3.42;3.08;;;10.70;99.90;;;;;;5010265;28;20044;-70
2021/09/12 03:54:12;;;;;;;3.10;2.60;;;10.80;99.90;;;;;;5010500;28;20050;-70
2021/09/12 03:56:37;;;;;;;5.97;2.80;;;10.80;99.90;;;;;;5010163;28;20030;-70
2021/09/12 03:59:03;;;;;;;2.92;2.50;;;10.80;99.90;;;;;;5010569;28;20026;-70
2021/09/12 04:01:29;;;;;;;2.90;2.60;;;10.80;99.90;;;;;;5010644;28;20078;-70
2021/09/12 04:03:54;;;;;;;3.92;2.47;;;10.70;99.90;;;;;;5010163;28;20497;-70
2021/09/12 04:06:20;;;;;;;2.60;2.40;;;10.70;99.90;;;;;;5010195;28;20053;-70
2021/09/12 04:08:46;;;;;;;2.85;2.45;;;10.70;99.90;;;;;;5009949;28;20018;-70
2021/09/12 04:11:11;;;;;;;2.60;2.40;;;10.60;99.90;;;;;;5010064;28;20037;-69
2021/09/12 04:13:37;;;;;;;4.55;2.70;;;10.60;99.90;;;;;;5010089;28;20068;-70
2021/09/12 04:16:03;;;;;;;3.25;2.40;;;10.50;99.90;;;;;;5009927;28;20053;-71
2021/09/12 04:18:29;;;;;;;2.92;2.67;;;10.50;99.90;;;;;;5010094;28;20022;-71
2021/09/12 04:20:55;;;;;;;2.50;2.30;;;10.60;99.90;;;;;;5009767;28;20029;-71
2021/09/12 04:23:21;;;;;;;3.08;2.70;;;10.50;99.90;;;;;;5009948;28;20041;-71
2021/09/12 04:25:46;;;;;;;2.95;2.65;;;10.50;99.90;;;;;;5009594;28;20058;-69
2021/09/12 04:28:12;;;;;;;2.63;2.17;;;10.50;99.90;;;;;;5009835;28;20152;-71
2021/09/12 04:30:38;;;;;;;2.85;2.60;;;10.50;99.90;;;;;;4996168;28;20030;-71
2021/09/12 04:33:03;;;;;;;3.53;2.78;;;10.50;99.90;;;;;;5009952;28;20403;-70
2021/09/12 04:35:29;;;;;;;1.80;1.65;;;10.50;99.90;;;;;;5073902;28;20509;-73
2021/09/12 04:37:55;;;;;;;2.40;2.00;;;10.50;99.90;;;;;;5105443;28;20036;-72
2021/09/12 04:40:21;;;;;;;4.07;2.00;;;11.00;99.90;;;;;;5106873;28;20026;-68
2021/09/12 04:42:46;;;;;;;1.70;1.60;;;10.90;99.90;;;;;;5100592;28;20049;-70
2021/09/12 04:45:12;;;;;;;1.65;1.55;;;10.70;99.90;;;;;;5082610;28;20026;-70
2021/09/12 04:47:38;;;;;;;2.88;1.77;;;10.60;99.90;;;;;;5002187;28;20041;-71
2021/09/12 04:50:05;;;;;;;1.85;1.67;;;10.60;99.90;;;;;;4996697;28;20449;-71
2021/09/12 04:52:30;;;;;;;1.70;1.60;;;10.60;99.90;;;;;;4993664;28;20060;-70
2021/09/12 04:54:56;;;;;;;1.80;1.52;;;10.50;99.90;;;;;;4989211;28;20046;-69
2021/09/12 04:57:22;;;;;;;2.55;1.58;;;10.50;99.90;;;;;;5001907;28;20083;-69
2021/09/12 04:59:47;;;;;;;1.67;1.58;;;10.50;99.90;;;;;;5001914;28;20026;-69
2021/09/12 05:02:13;;;;;;;2.08;1.73;;;10.50;99.90;;;;;;5013391;28;20501;-69
2021/09/12 05:04:39;;;;;;;1.80;1.30;;;10.50;99.90;;;;;;5001283;28;20025;-69
2021/09/12 05:07:04;;;;;;;1.73;1.50;;;10.50;99.90;;;;;;5010965;28;20432;-69
2021/09/12 05:09:30;;;;;;;1.50;1.40;;;10.40;99.90;;;;;;4993940;28;20038;-69
2021/09/12 05:11:56;;;;;;;2.03;1.60;;;10.40;99.90;;;;;;5003936;28;20030;-69
2021/09/12 05:14:24;;;;;;;2.67;1.50;;;10.40;99.90;;;;;;5006321;28;20117;-71
2021/09/12 05:16:50;;;;;;;1.63;1.50;;;10.50;99.90;;;;;;5014328;28;20090;-69
2021/09/12 05:19:15;;;;;;;2.00;1.63;;;10.50;99.90;;;;;;5007005;28;20026;-69
2021/09/12 05:21:41;;;;;;;2.78;1.48;;;10.50;99.90;;;;;;5015744;28;20031;-70
2021/09/12 05:24:07;;;;;;;2.42;1.38;;;10.40;99.90;;;;;;5010536;28;20022;-68
2021/09/12 05:26:32;;;;;;;2.53;1.95;;;10.50;99.90;;;;;;5003070;28;20467;-69
2021/09/12 05:28:58;;;;;;;1.65;1.50;;;10.50;99.90;;;;;;4997788;28;20030;-69
2021/09/12 05:31:24;;;;;;;1.70;1.50;;;10.40;99.90;;;;;;4995890;28;20030;-69
2021/09/12 05:33:50;;;;;;;1.58;1.48;;;10.50;99.90;;;;;;5048243;28;20308;-70
2021/09/12 05:36:15;;;;;;;3.92;1.83;;;10.50;99.90;;;;;;5039433;28;20025;-68
2021/09/12 05:38:41;;;;;;;1.73;1.58;;;10.50;99.90;;;;;;5056894;28;20668;-68
2021/09/12 05:41:07;;;;;;;2.33;1.70;;;10.60;99.90;;;;;;5070366;28;20024;-68
2021/09/12 05:43:32;;;;;;;1.88;1.75;;;10.60;99.90;;;;;;5079878;28;20020;-68
2021/09/12 05:45:58;;;;;;;2.28;1.70;;;10.60;99.90;;;;;;5049374;28;20117;-68
2021/09/12 05:48:24;;;;;;;2.10;1.90;;;10.60;99.90;;;;;;5010435;28;20404;-68
2021/09/12 05:50:50;;;;;;;2.20;2.00;;;10.60;99.90;;;;;;5012123;28;20080;-68
2021/09/12 05:53:18;;;;;;;2.35;1.92;;;10.60;99.90;;;;;;5012271;28;20042;-68
2021/09/12 05:55:43;;;;;;;2.40;2.15;;;10.60;99.90;;;;;;5012411;28;20032;-73
2021/09/12 05:58:09;;;;;;;4.00;2.53;;;10.60;99.90;;;;;;5011907;28;20467;-67
2021/09/12 06:00:35;;;;;;;3.20;2.40;;;11.60;99.90;;;;;;5009740;28;20022;-68
2021/09/12 06:03:01;;;;;;;2.40;1.73;;;12.20;99.90;;;;;;4997253;28;20031;-68
2021/09/12 06:05:26;;;;;;;6.22;2.00;;;12.20;99.90;;;;;;4996695;28;20112;-68
2021/09/12 06:07:52;;;;;;;2.53;2.17;;;12.10;99.90;;;;;;5011391;28;20109;-68
2021/09/12 06:10:18;;;;;;;2.20;1.60;;;12.00;99.90;;;;;;5022570;28;20033;-68
2021/09/12 06:12:44;;;;;;;1.70;1.55;;;11.90;99.90;;;;;;5099155;28;20020;-67
2021/09/12 06:15:10;;;;;;;2.65;1.88;;;12.00;99.90;;;;;;5082096;28;20026;-66
2021/09/12 06:17:36;;;;;;;3.10;2.33;;;12.10;99.90;;;;;;5058677;28;20113;-68
2021/09/12 06:20:02;;;;;;;5.47;2.05;;;12.10;99.90;;;;;;5063827;28;20107;-68
2021/09/12 06:22:28;;;;;;;2.15;1.92;;;12.30;99.90;;;;;;5091442;28;20024;-67
2021/09/12 06:24:53;;;;;;;3.65;2.28;;;12.30;99.90;;;;;;5098634;28;20023;-65
2021/09/12 06:27:19;;;;;;;2.42;1.50;;;13.10;99.90;;;;;;5078655;28;20022;-65
2021/09/12 06:29:45;;;;;;;1.73;1.50;;;13.40;99.90;;;;;;5098926;28;20023;-65
2021/09/12 06:32:10;;;;;;;2.13;1.75;;;13.40;99.90;;;;;;5082133;28;20385;-65
2021/09/12 06:34:36;;;;;;;2.42;1.63;;;13.20;99.90;;;;;;5098886;28;20034;-66
2021/09/12 06:37:02;;;;;;;1.58;1.40;;;12.90;99.90;;;;;;5088393;28;20039;-66
2021/09/12 06:39:28;;;;;;;1.88;1.73;;;12.70;99.90;;;;;;5090495;28;20023;-69
2021/09/12 06:41:54;;;;;;;3.55;1.63;;;12.40;99.90;;;;;;5098862;28;20111;-70
2021/09/12 06:44:19;;;;;;;1.80;1.48;;;12.20;99.90;;;;;;5098685;28;20022;-69
2021/09/12 06:46:45;;;;;;;2.10;1.77;;;12.10;99.90;;;;;;5018245;27;20069;-70
2021/09/12 06:49:11;;;;;;;1.92;1.65;;;12.00;99.90;;;;;;5011290;28;20032;-69
2021/09/12 06:51:37;;;;;;;2.90;1.50;;;11.90;99.90;;;;;;5011266;28;20022;-69
2021/09/12 06:54:03;;;;;;;2.83;1.40;;;11.70;99.90;;;;;;5011171;28;20037;-69
2021/09/12 06:56:28;;;;;;;1.33;1.23;;;11.60;99.90;;;;;;5010139;28;20440;-69
2021/09/12 06:58:54;;;;;;;1.40;1.30;;;11.50;99.90;;;;;;5010682;28;20026;-69
2021/09/12 07:01:20;;;;;;;1.75;1.40;;;11.40;99.90;;;;;;5011444;28;20032;-68
2021/09/12 07:03:45;;;;;;;1.33;1.23;;;11.40;99.90;;;;;;5011360;28;20091;-70
2021/09/12 07:06:11;;;;;;;1.67;1.48;;;11.40;99.90;;;;;;5010998;28;20030;-68
2021/09/12 07:08:37;;;;;;;1.27;1.17;;;11.30;99.90;;;;;;5011065;28;20113;-72
2021/09/12 07:11:04;;;;;;;1.98;1.10;;;11.30;99.90;;;;;;5047599;28;20494;-72
2021/09/12 07:13:29;;;;;;;2.63;1.20;;;11.20;99.90;;;;;;5101592;28;20020;-70
2021/09/12 07:15:55;;;;;;;2.30;1.10;;;11.20;99.90;;;;;;5107584;28;20076;-69
2021/09/12 07:18:21;;;;;;;1.25;1.15;;;11.10;99.90;;;;;;5106286;28;20063;-68
2021/09/12 07:20:46;;;;;;;1.80;1.10;;;11.40;99.90;;;;;;5106029;28;20582;-67
2021/09/12 07:23:12;;;;;;;1.25;1.00;;;12.30;99.90;;;;;;5113127;28;20023;-70
2021/09/12 07:25:38;;;;;;;1.20;1.10;;;12.70;99.90;;;;;;5086163;28;20030;-69
2021/09/12 07:28:04;;;;;;;1.90;0.98;;;12.50;99.90;;;;;;5002177;28;20019;-69
2021/09/12 07:30:30;;;;;;;0.73;0.73;;;12.50;99.90;;;;;;5075866;28;20051;-69
2021/09/12 07:32:55;;;;;;;1.33;0.80;;;12.50;99.90;;;;;;5108479;28;20110;-69
2021/09/12 07:35:21;;;;;;;0.73;0.73;;;12.60;99.90;;;;;;5108185;28;20119;-69
2021/09/12 07:37:47;;;;;;;0.85;0.80;;;12.70;99.90;;;;;;5101966;28;20035;-69
2021/09/12 07:40:13;;;;;;;1.33;0.80;;;12.80;99.90;;;;;;5108028;27;20475;-69
2021/09/12 07:42:41;;;;;;;0.80;0.70;;;12.80;99.90;;;;;;5060612;28;20026;-68
2021/09/12 07:45:07;;;;;;;1.15;0.70;;;12.80;99.90;;;;;;5088111;28;20029;-71
2021/09/12 07:47:33;;;;;;;1.27;0.80;;;12.70;99.90;;;;;;5010467;28;20034;-71
2021/09/12 07:49:59;;;;;;;0.90;0.70;;;12.60;99.90;;;;;;5010196;28;20449;-68
2021/09/12 07:52:25;;;;;;;2.30;0.93;;;12.60;99.90;;;;;;5010422;28;20102;-68
2021/09/12 07:54:50;;;;;;;3.28;0.95;;;12.40;99.90;;;;;;5010263;28;20089;-70
2021/09/12 07:57:16;;;;;;;1.15;0.70;;;12.30;99.90;;;;;;5008915;28;20034;-67
2021/09/12 07:59:42;;;;;;;0.80;0.80;;;12.30;99.90;;;;;;5010436;28;20083;-67
2021/09/12 08:02:07;;;;;;;1.42;1.00;;;12.50;99.90;;;;;;5010147;28;20030;-67
2021/09/12 08:04:33;;;;;;;1.13;0.80;;;12.60;99.90;;;;;;5010444;28;20029;-68
2021/09/12 08:06:59;;;;;;;1.52;1.00;;;12.60;99.90;;;;;;5009945;28;20461;-67
2021/09/12 08:09:25;;;;;;;0.93;0.90;;;12.70;99.90;;;;;;5010562;28;20030;-68
2021/09/12 08:11:50;;;;;;;0.85;0.70;;;12.60;99.90;;;;;;5008043;28;20062;-68
2021/09/12 08:14:16;;;;;;;0.90;0.80;;;12.70;99.90;;;;;;4997289;28;20030;-68
2021/09/12 08:16:42;;;;;;;1.42;0.88;;;12.70;99.90;;;;;;5009831;28;20034;-67
2021/09/12 08:19:08;;;;;;;1.40;1.00;;;12.80;99.90;;;;;;5008521;28;20022;-66
2021/09/12 08:21:33;;;;;;;1.10;1.00;;;12.80;99.90;;;;;;5010432;28;20103;-68
2021/09/12 08:23:59;;;;;;;2.15;0.90;;;12.80;99.90;;;;;;5040749;28;20034;-66
2021/09/12 08:26:25;;;;;;;0.65;0.65;;;12.90;99.90;;;;;;5051532;28;20167;-68
2021/09/12 08:28:50;;;;;;;1.17;0.70;;;13.00;99.90;;;;;;5044010;28;20026;-68
2021/09/12 08:31:16;;;;;;;1.02;0.85;;;13.00;99.90;;;;;;5061645;28;20015;-68
2021/09/12 08:33:42;;;;;;;2.78;1.10;;;12.80;99.90;;;;;;5038951;28;20558;-67
2021/09/12 08:36:08;;;;;;;1.60;0.85;;;12.70;99.90;;;;;;5063468;28;20407;-67
2021/09/12 08:38:33;;;;;;;1.52;1.10;;;12.60;99.90;;;;;;5041201;28;20124;-75
2021/09/12 08:41:00;;;;;;;1.02;0.85;;;12.50;99.90;;;;;;5035390;28;20022;-71
2021/09/12 08:43:26;;;;;;;1.15;0.80;;;12.50;99.90;;;;;;5030056;28;20023;-69
2021/09/12 08:45:52;;;;;;;1.20;0.80;;;12.40;99.90;;;;;;5054667;28;20044;-68
2021/09/12 08:48:18;;;;;;;3.53;1.52;;;12.60;99.90;;;;;;5009232;28;20024;-68
2021/09/12 08:50:45;;;;;;;1.73;1.10;;;12.70;99.90;;;;;;5009474;28;20038;-72
2021/09/12 08:53:10;;;;;;;1.45;0.65;;;13.00;99.90;;;;;;5009390;28;20086;-72
2021/09/12 08:55:36;;;;;;;1.13;0.60;;;13.30;99.90;;;;;;5009644;28;20419;-71
2021/09/12 08:58:04;;;;;;;0.75;0.60;;;13.30;99.90;;;;;;5009541;28;20390;-71
2021/09/12 09:00:31;;;;;;;4.55;1.45;;;13.00;99.90;;;;;;5009255;28;20022;-71
2021/09/12 09:03:02;;;;;;;1.38;0.88;;;12.90;99.90;;;;;;5009487;28;20029;-71
2021/09/12 09:05:37;;;;;;;0.70;0.70;;;12.90;99.90;;;;;;5009250;28;20058;-71
2021/09/12 09:08:16;;;;;;;0.50;0.50;;;12.80;99.90;;;;;;5003399;28;20690;-71
2021/09/12 09:10:48;;;;;;;0.60;0.60;;;12.60;99.90;;;;;;4994406;28;20027;-72
2021/09/12 09:13:35;;;;;;;0.60;0.60;;;12.50;99.90;;;;;;5047575;28;20038;-69
2021/09/12 09:16:04;;;;;;;0.60;0.60;;;12.40;99.90;;;;;;4993544;28;20030;-69
2021/09/12 09:18:48;;;;;;;0.82;0.70;;;12.30;99.90;;;;;;5004620;28;20038;-73
2021/09/12 09:21:34;;;;;;;0.95;0.90;;;12.30;99.90;;;;;;5000963;28;20018;-70
2021/09/12 09:24:12;;;;;;;1.17;0.90;;;12.30;99.90;;;;;;5011224;28;20409;-71
2021/09/12 09:26:46;;;;;;;1.13;1.00;;;12.20;99.90;;;;;;5002628;28;20509;-71
2021/09/12 09:29:14;;;;;;;0.80;0.80;;;12.20;99.90;;;;;;5016404;28;20115;-71
2021/09/12 09:31:41;;;;;;;0.90;0.90;;;12.20;99.90;;;;;;5000607;28;20038;-70
2021/09/12 09:34:18;;;;;;;1.40;0.90;;;12.10;99.90;;;;;;5005133;28;20022;-70
2021/09/12 09:36:46;;;;;;;1.10;1.00;;;12.20;99.90;;;;;;5002015;28;20032;-70
2021/09/12 09:39:12;;;;;;;1.38;1.15;;;12.20;99.90;;;;;;5036427;28;20439;-70
2021/09/12 09:41:39;;;;;;;1.23;1.13;;;12.30;99.90;;;;;;5035345;28;20109;-70
2021/09/12 09:44:14;;;;;;;1.50;1.20;;;12.20;99.90;;;;;;5079787;28;20024;-71
2021/09/12 09:46:44;;;;;;;1.95;1.33;;;12.20;99.90;;;;;;5019425;28;20033;-69
2021/09/12 09:49:23;;;;;;;1.23;1.00;;;12.10;99.90;;;;;;5007380;28;20129;-69
2021/09/12 09:51:52;;;;;;;1.23;1.10;;;12.10;99.90;;;;;;5008761;28;20014;-69
2021/09/12 09:54:18;;;;;;;0.90;0.90;;;12.10;99.90;;;;;;4998354;28;20100;-68
2021/09/12 09:56:46;;;;;;;1.02;0.93;;;12.00;99.90;;;;;;5002882;28;20087;-68
2021/09/12 09:59:15;;;;;;;1.42;1.25;;;12.00;99.90;;;;;;4997656;28;20075;-68
2021/09/12 10:01:42;;;;;;;1.45;1.15;;;12.00;99.90;;;;;;5007149;28;20481;-69
2021/09/12 10:04:08;;;;;;;1.30;1.20;;;12.00;99.90;;;;;;5008449;28;20370;-69
2021/09/12 10:06:35;;;;;;;2.40;0.77;;;12.00;99.90;;;;;;5008641;28;20477;-71
2021/09/12 10:09:01;;;;;;;1.73;1.23;;;12.00;99.90;;;;;;5008284;28;20029;-71
2021/09/12 10:11:27;;;;;;;1.02;0.93;;;12.00;99.90;;;;;;5007199;28;20022;-68
2021/09/12 10:13:53;;;;;;;1.10;1.00;;;12.00;99.90;;;;;;5008276;28;20147;-68
2021/09/12 10:16:20;;;;;;;2.80;1.00;;;12.00;99.90;;;;;;5008114;28;20041;-67
2021/09/12 10:18:47;;;;;;;1.00;0.90;;;12.00;99.90;;;;;;5008344;28;20432;-67
2021/09/12 10:21:23;;;;;;;1.27;1.00;;;12.00;99.90;;;;;;5008237;28;20030;-68
2021/09/12 10:23:57;;;;;;;1.05;0.98;;;12.00;99.90;;;;;;5008357;28;20026;-68
2021/09/12 10:26:43;;;;;;;1.33;1.20;;;12.10;99.90;;;;;;5008144;28;20029;-75
2021/09/12 10:29:42;;;;;;;1.20;1.10;;;12.00;99.90;;;;;;5007993;28;20158;-69
2021/09/12 10:32:36;;;;;;;2.00;1.10;;;12.00;99.90;;;;;;5007871;28;20018;-67
2021/09/12 10:35:20;;;;;;;1.80;1.20;;;12.00;99.90;;;;;;5000900;28;20129;-71
2021/09/12 10:38:05;;;;;;;1.30;1.20;;;12.10;99.90;;;;;;5011505;28;20504;-70
2021/09/12 10:40:54;;;;;;;1.58;1.15;;;12.10;99.90;;;;;;4992335;28;20031;-71
2021/09/12 10:43:25;;;;;;;1.20;1.10;;;12.00;99.90;;;;;;5058523;28;20040;-72
2021/09/12 10:46:07;;;;;;;1.10;1.00;;;12.00;99.90;;;;;;5088107;28;20029;-74
2021/09/12 10:48:44;;;;;;;0.90;0.90;;;12.10;99.90;;;;;;5102123;28;20024;-72
2021/09/12 10:51:09;;;;;;;0.93;0.77;;;12.10;99.90;;;;;;5102203;28;20676;-73
2021/09/12 10:53:47;;;;;;;0.95;0.95;;;12.10;99.90;;;;;;5099886;28;20123;-74
2021/09/12 10:56:19;;;;;;;0.80;0.80;;;12.00;99.90;;;;;;5105235;28;20045;-70
2021/09/12 10:58:49;;;;;;;1.85;0.98;;;12.00;99.90;;;;;;5102237;28;20031;-71
2021/09/12 11:01:27;;;;;;;1.23;1.13;;;12.00;99.90;;;;;;5105815;28;20461;-71
2021/09/12 11:03:57;;;;;;;1.55;1.00;;;12.00;99.90;;;;;;5104103;28;20104;-72
2021/09/12 11:06:23;;;;;;;0.98;0.98;;;12.00;99.90;;;;;;5048981;28;20158;-71
2021/09/12 11:08:49;;;;;;;1.02;0.93;;;12.00;99.90;;;;;;5077964;28;20546;-72
2021/09/12 11:11:15;;;;;;;0.70;0.70;;;12.00;99.90;;;;;;5073371;28;20072;-71
2021/09/12 11:13:41;;;;;;;1.05;0.70;;;12.10;99.90;;;;;;5064180;28;20183;-71
2021/09/12 11:16:13;;;;;;;0.85;0.85;;;12.10;99.90;;;;;;5087258;28;20019;-70
2021/09/12 11:18:42;;;;;;;1.08;0.70;;;12.10;99.90;;;;;;5057341;28;20501;-70
2021/09/12 11:21:08;;;;;;;3.15;0.70;;;12.10;99.90;;;;;;5087100;28;20024;-70
2021/09/12 11:23:35;;;;;;;0.70;0.70;;;12.00;99.90;;;;;;5062680;28;20083;-74
2021/09/12 11:26:01;;;;;;;0.95;0.60;;;12.00;99.90;;;;;;5080991;28;20177;-70
2021/09/12 11:28:29;;;;;;;1.42;0.90;;;12.00;99.90;;;;;;5071715;28;20033;-71
2021/09/12 11:30:56;;;;;;;0.73;0.68;;;12.00;99.90;;;;;;5077814;28;20027;-72
2021/09/12 11:33:42;;;;;;;0.70;0.70;;;12.00;99.90;;;;;;5079790;28;20027;-71
2021/09/12 11:36:08;;;;;;;0.70;0.70;;;12.10;99.90;;;;;;5082302;28;20027;-73
2021/09/12 11:38:33;;;;;;;0.50;0.50;;;12.10;99.90;;;;;;5063715;28;20039;-72
2021/09/12 11:40:59;;;;;;;1.05;0.70;;;12.10;99.90;;;;;;5091781;28;20115;-70
2021/09/12 11:43:26;;;;;;;0.50;0.50;;;12.20;99.90;;;;;;5108176;28;20471;-69
2021/09/12 11:46:05;;;;;;;0.70;0.70;;;12.20;99.90;;;;;;5054813;28;20045;-70
2021/09/12 11:48:31;;;;;;;0.60;0.60;;;12.20;99.90;;;;;;5010604;28;20025;-71
2021/09/12 11:50:57;;;;;;;1.35;0.60;;;12.10;99.90;;;;;;5010627;28;20026;-65
2021/09/12 11:53:27;;;;;;;0.95;0.50;;;12.20;99.90;;;;;;5010148;28;20045;-64
2021/09/12 11:55:53;;;;;;;0.40;0.40;;;12.10;99.90;;;;;;5010426;28;20038;-65
2021/09/12 11:58:20;;;;;;;0.35;0.35;;;12.20;99.90;;;;;;5010399;28;20041;-65
2021/09/12 12:00:47;;;;;;;0.50;0.50;;;12.10;99.90;;;;;;5007848;28;20026;-68
2021/09/12 12:03:15;;;;;;;0.40;0.40;;;12.20;99.90;;;;;;5033588;28;20042;-65
2021/09/12 12:05:43;;;;;;;0.38;0.38;;;12.20;99.90;;;;;;5060002;28;20019;-64
2021/09/12 12:08:14;;;;;;;0.50;0.50;;;12.20;99.90;;;;;;5087323;28;20027;-66
2021/09/12 12:10:40;;;;;;;0.45;0.45;;;12.20;99.90;;;;;;5018528;28;20033;-66
2021/09/12 12:13:07;;;;;;;1.08;0.40;;;12.10;99.90;;;;;;5021552;28;20026;-65
2021/09/12 12:15:42;;;;;;;0.50;0.30;;;12.10;99.90;;;;;;5019062;28;20030;-64
2021/09/12 12:18:13;;;;;;;3.80;0.90;;;12.10;99.90;;;;;;5021145;28;20038;-64
2021/09/12 12:20:40;;;;;;;0.75;0.40;;;12.70;99.90;;;;;;5032984;28;20012;-64
2021/09/12 12:23:16;;;;;;;0.20;0.20;;;13.20;99.90;;;;;;5054452;28;20083;-66
2021/09/12 12:25:43;;;;;;;0.20;0.20;;;12.90;99.90;;;;;;5074742;28;20670;-65
2021/09/12 12:28:15;;;;;;;1.88;0.30;;;12.70;99.90;;;;;;5092030;28;20391;-65
2021/09/12 12:30:42;;;;;;;0.38;0.38;;;12.60;99.90;;;;;;5068989;28;20087;-66
2021/09/12 12:33:08;;;;;;;0.30;0.30;;;12.50;99.90;;;;;;5092054;28;20062;-66
2021/09/12 12:35:34;;;;;;;1.02;0.30;;;12.40;99.90;;;;;;5072253;28;20050;-65
2021/09/12 12:37:59;;;;;;;3.03;0.40;;;12.30;99.90;;;;;;5088221;27;20047;-66
2021/09/12 12:40:25;;;;;;;0.20;0.20;;;12.30;99.90;;;;;;5075234;28;20028;-66
2021/09/12 12:43:01;;;;;;;0.52;0.40;;;12.30;99.90;;;;;;5080287;28;20059;-65
2021/09/12 12:45:33;;;;;;;0.45;0.40;;;12.30;99.90;;;;;;4996184;28;20028;-65
2021/09/12 12:48:07;;;;;;;0.30;0.30;;;12.30;99.90;;;;;;4994578;28;20030;-65
2021/09/12 12:50:37;;;;;;;0.40;0.40;;;12.30;99.90;;;;;;5008609;28;20481;-65
2021/09/12 12:53:11;;;;;;;0.40;0.40;;;12.30;99.90;;;;;;4994463;28;20061;-66
2021/09/12 12:55:37;;;;;;;0.77;0.57;;;12.30;99.90;;;;;;5008579;28;20036;-66
2021/09/12 12:58:05;;;;;;;0.55;0.50;;;12.90;99.90;;;;;;5007771;28;20030;-66
2021/09/12 13:00:31;;;;;;;0.70;0.40;;;13.00;99.90;;;;;;5007414;28;20074;-67
2021/09/12 13:02:57;;;;;;;0.20;0.20;;;12.90;99.90;;;;;;5008631;28;20025;-69
2021/09/12 13:05:22;;;;;;;0.20;0.20;;;12.70;99.90;;;;;;4991422;28;20038;-69
2021/09/12 13:07:48;;;;;;;0.30;0.30;;;12.60;99.90;;;;;;5005506;28;20089;-69
2021/09/12 13:10:14;;;;;;;0.57;0.40;;;12.50;99.90;;;;;;5017484;28;20074;-68
2021/09/12 13:12:40;;;;;;;0.32;0.32;;;12.40;99.90;;;;;;5037251;28;20074;-66
2021/09/12 13:15:06;;;;;;;1.13;0.40;;;12.40;99.90;;;;;;5026951;28;20416;-66
2021/09/12 13:17:32;;;;;;;0.30;0.30;;;12.30;99.90;;;;;;5023700;28;20100;-67